Airfield :
LOGIN :

Register | Disclaimer

   EN    FR    IT 

 










Legend :    VFR   Marginal VFR   IFR   Intensive IFR   Very Intensive IFR
Visi :
Ceiling :
>= 8 km
>= 3000ft
5 to 8 km
1000 to 3000 ft
1500m to 5 km
500 to 1000 ft
800 to 1500m
200 to 500 ft
< 800m
< 200 ft
Symbols :   Thunderstorms  Fog  Heavy snow  Heavy precipitations  Wind > 20 kt
SIGMETs :     Misc.  Thunderstorms  Icing  Turbulence  Mountain Waves  Volcanic Ashes






- Airport Elevation : 584 ft


LFPV - Villacoublay Vélizy

CURRENT METAR :
  • 151630Z AUTO 04009KT 9999 OVC027 01/M04 Q1029 NOSIG

EXPIRED METARs :
  • 151600Z AUTO 02009KT 340V040 9999 OVC027 01/M04 Q1029 NOSIG
  • 151530Z AUTO 03009KT 360V060 9999 OVC027 02/M03 Q1028 NOSIG
  • 151500Z AUTO 02010KT 9999 OVC026 02/M03 Q1028 NOSIG
  • 151430Z AUTO 02009KT 350V050 9999 BKN026 02/M03 Q1028 NOSIG
  • 151400Z AUTO 03010KT 010V070 9999 BKN026 02/M03 Q1028 NOSIG

TAF TAF LFPV
Valid from the 15 at 15:00 until the 16 at 15:00 UTC


151400Z 1515/1615 02008KT 9999 BKN026 TX02/1515Z TNM02/1603Z
PROB40
TEMPO 1600/1608 3500 BR
BECMG 1609/1611 BKN008
TEMPO 1611/1615 2000 SN BKN004



MET'MAP, your aeronautical weather chart ! - Copyright ORBIFLY December 2007 - Disclaimer

ORBIFLY MET'MAP TEAM :

Programming & Development : Alexandra Zaïnal
Concept & original design : Baudouin d'Aumeries
Assistance for programming : Marc-Olivier Méhu
Technical & hardware support : Manuel Goepfert

Contact : metmap@orbifly.com




SOURCES & CREDITS :

   NOAA